Time;durP1;ratioP1;P1;durP2;ratioP2;P2;SDS_P1;SDS_P2;PMS_P1;PMS_P2;Temp;Humidity;BMP_temperature;BMP_pressure;BME280_temperature;BME280_humidity;BME280_pressure;Samples;Min_cycle;Max_cycle;Signal;HPM_P1;HPM_P2
2023/08/16 00:02:18;;;;;;;0.17;0.17;;;15.00;99.90;;;;;;5027665;28;20360;-66
2023/08/16 00:04:45;;;;;;;0.00;0.00;;;15.00;99.90;;;;;;5025802;28;20051;-67
2023/08/16 00:07:11;;;;;;;0.03;0.03;;;14.90;99.90;;;;;;5023347;28;20053;-66
2023/08/16 00:09:39;;;;;;;0.00;0.00;;;14.80;99.90;;;;;;5026776;28;20069;-67
2023/08/16 00:12:05;;;;;;;0.32;0.32;;;14.80;99.90;;;;;;5027519;28;20415;-79
2023/08/16 00:14:31;;;;;;;0.00;0.00;;;14.70;99.90;;;;;;5030014;28;20049;-66
2023/08/16 00:16:57;;;;;;;0.00;0.00;;;14.60;99.90;;;;;;5024240;28;20355;-67
2023/08/16 00:19:24;;;;;;;0.08;0.08;;;14.60;99.90;;;;;;5025598;28;20018;-66
2023/08/16 00:21:50;;;;;;;0.00;0.00;;;14.60;99.90;;;;;;5025661;28;20026;-67
2023/08/16 00:24:16;;;;;;;0.05;0.05;;;14.60;99.90;;;;;;5029865;28;20482;-67
2023/08/16 00:26:42;;;;;;;4.83;1.70;;;14.60;99.90;;;;;;5027421;28;20033;-67
2023/08/16 00:29:07;;;;;;;0.37;0.13;;;14.60;99.90;;;;;;5024938;28;20109;-78
2023/08/16 00:31:33;;;;;;;1.20;0.30;;;14.60;99.90;;;;;;5023777;28;20104;-66
2023/08/16 00:33:59;;;;;;;0.20;0.20;;;14.60;99.90;;;;;;5025277;28;20026;-66
2023/08/16 00:36:25;;;;;;;0.25;0.25;;;14.60;99.90;;;;;;5026068;28;20037;-66
2023/08/16 00:38:50;;;;;;;5.13;1.60;;;14.50;99.90;;;;;;5026671;28;20550;-67
2023/08/16 00:41:17;;;;;;;0.07;0.07;;;14.50;99.90;;;;;;5024589;28;20045;-66
2023/08/16 00:43:42;;;;;;;0.00;0.00;;;14.40;99.90;;;;;;5026195;28;20040;-66
2023/08/16 00:46:11;;;;;;;0.00;0.00;;;14.40;99.90;;;;;;5025898;28;20332;-66
2023/08/16 00:48:38;;;;;;;0.22;0.22;;;14.30;99.90;;;;;;5023462;28;20412;-66
2023/08/16 00:51:06;;;;;;;0.20;0.20;;;14.30;99.90;;;;;;5023076;28;20413;-66
2023/08/16 00:53:32;;;;;;;0.13;0.13;;;14.40;99.90;;;;;;5026545;28;20064;-66
2023/08/16 00:55:58;;;;;;;0.65;0.65;;;14.40;99.90;;;;;;5028393;28;20033;-66
2023/08/16 00:58:27;;;;;;;0.00;0.00;;;14.40;99.90;;;;;;5024804;28;20321;-66
2023/08/16 01:00:53;;;;;;;0.10;0.10;;;14.30;99.90;;;;;;5031081;28;20025;-66
2023/08/16 01:03:19;;;;;;;3.08;0.52;;;14.30;99.90;;;;;;5021137;28;20024;-70
2023/08/16 01:05:45;;;;;;;0.00;0.00;;;14.30;99.90;;;;;;5029577;28;20029;-66
2023/08/16 01:08:11;;;;;;;0.00;0.00;;;14.30;99.90;;;;;;5026902;28;20041;-66
2023/08/16 01:10:46;;;;;;;0.10;0.10;;;14.30;99.90;;;;;;5029141;28;20468;-66
2023/08/16 01:13:19;;;;;;;3.75;0.68;;;14.40;99.90;;;;;;5031784;28;20025;-66
2023/08/16 01:15:48;;;;;;;0.10;0.10;;;14.40;99.90;;;;;;5040739;28;20035;-66
2023/08/16 01:18:15;;;;;;;0.10;0.10;;;14.60;99.90;;;;;;5038943;28;20030;-78
2023/08/16 01:20:41;;;;;;;0.00;0.00;;;14.70;99.90;;;;;;5034072;28;20029;-79
2023/08/16 01:23:19;;;;;;;0.45;0.45;;;14.70;99.90;;;;;;5037157;28;20029;-66
2023/08/16 01:26:03;;;;;;;7.22;0.55;;;14.70;99.90;;;;;;5035682;28;20029;-66
2023/08/16 01:28:31;;;;;;;0.10;0.10;;;14.70;99.90;;;;;;5031454;28;20034;-66
2023/08/16 01:31:05;;;;;;;0.20;0.15;;;14.60;99.90;;;;;;5037875;28;20162;-66
2023/08/16 01:33:31;;;;;;;0.10;0.10;;;14.60;99.90;;;;;;5033757;28;20036;-66
2023/08/16 01:35:57;;;;;;;1.90;0.82;;;14.50;99.90;;;;;;5034419;28;20025;-66
2023/08/16 01:38:24;;;;;;;0.00;0.00;;;14.30;99.90;;;;;;5037062;28;20408;-66
2023/08/16 01:40:54;;;;;;;0.10;0.10;;;14.30;99.90;;;;;;5036315;28;20045;-66
2023/08/16 01:43:20;;;;;;;0.03;0.03;;;14.30;99.90;;;;;;5027747;28;20033;-66
2023/08/16 01:45:49;;;;;;;0.10;0.10;;;14.30;99.90;;;;;;5027076;28;20429;-66
2023/08/16 01:48:15;;;;;;;0.00;0.00;;;14.20;99.90;;;;;;5023596;28;20046;-65
2023/08/16 01:50:41;;;;;;;0.10;0.10;;;14.20;99.90;;;;;;5020704;28;20026;-66
2023/08/16 01:53:08;;;;;;;0.00;0.00;;;14.10;99.90;;;;;;5031070;28;20041;-66
2023/08/16 01:55:34;;;;;;;0.00;0.00;;;14.00;99.90;;;;;;5023628;28;20025;-65
2023/08/16 01:58:00;;;;;;;0.10;0.10;;;14.00;99.90;;;;;;5033295;28;20036;-66
2023/08/16 02:00:26;;;;;;;0.00;0.00;;;13.90;99.90;;;;;;5029931;28;20030;-66
2023/08/16 02:02:51;;;;;;;0.33;0.20;;;13.80;99.90;;;;;;5026296;28;20108;-66
2023/08/16 02:05:17;;;;;;;0.10;0.10;;;13.80;99.90;;;;;;5035613;28;20030;-66
2023/08/16 02:07:43;;;;;;;0.73;0.53;;;13.80;99.90;;;;;;5051601;28;20026;-65
2023/08/16 02:10:09;;;;;;;0.40;0.40;;;13.70;99.90;;;;;;5034416;28;20955;-66
2023/08/16 02:12:34;;;;;;;0.00;0.00;;;13.60;99.90;;;;;;5034744;28;20025;-66
2023/08/16 02:15:00;;;;;;;0.00;0.00;;;13.50;99.90;;;;;;5035746;28;20044;-66
2023/08/16 02:17:26;;;;;;;0.00;0.00;;;13.60;99.90;;;;;;5028219;28;20029;-66
2023/08/16 02:19:53;;;;;;;0.30;0.30;;;13.60;99.90;;;;;;5051640;28;20484;-77
2023/08/16 02:22:18;;;;;;;;;;;13.60;99.90;;;;;;5036154;28;20017;-66
2023/08/16 02:24:44;;;;;;;0.37;0.37;;;13.60;99.90;;;;;;5029734;28;20004;-66
2023/08/16 02:27:10;;;;;;;1.43;1.33;;;13.70;99.90;;;;;;5032798;28;20048;-66
2023/08/16 02:29:35;;;;;;;6.73;0.67;;;13.70;99.90;;;;;;5035325;28;20032;-66
2023/08/16 02:32:01;;;;;;;0.13;0.13;;;13.80;99.90;;;;;;5024558;28;20029;-66
2023/08/16 02:34:27;;;;;;;0.40;0.40;;;13.80;99.90;;;;;;5029542;28;20033;-66
2023/08/16 02:36:53;;;;;;;1.53;1.13;;;13.90;99.90;;;;;;5024719;28;20037;-66
2023/08/16 02:39:18;;;;;;;1.73;0.23;;;14.00;99.90;;;;;;5035885;28;20033;-65
2023/08/16 02:41:44;;;;;;;0.10;0.10;;;14.10;99.90;;;;;;5035147;28;20048;-66
2023/08/16 02:44:10;;;;;;;0.10;0.10;;;14.10;99.90;;;;;;5036255;28;20029;-65
2023/08/16 02:46:35;;;;;;;0.13;0.13;;;14.10;99.90;;;;;;5038916;28;20013;-74
2023/08/16 02:49:01;;;;;;;0.20;0.20;;;14.00;99.90;;;;;;5035979;28;20113;-66
2023/08/16 02:51:27;;;;;;;0.10;0.10;;;14.00;99.90;;;;;;5028917;28;20044;-66
2023/08/16 02:53:52;;;;;;;0.63;0.47;;;14.00;99.90;;;;;;5027125;28;20084;-66
2023/08/16 02:56:18;;;;;;;0.40;0.40;;;14.00;99.90;;;;;;5027571;28;20472;-76
2023/08/16 02:58:44;;;;;;;1.30;1.20;;;14.10;99.90;;;;;;5035610;28;20040;-66
2023/08/16 03:01:10;;;;;;;0.20;0.20;;;14.20;99.90;;;;;;5035932;28;20116;-65
2023/08/16 03:03:35;;;;;;;0.07;0.07;;;14.20;99.90;;;;;;5034852;28;20416;-65
2023/08/16 03:06:01;;;;;;;0.93;0.30;;;14.10;99.90;;;;;;5033749;28;20013;-65
2023/08/16 03:08:27;;;;;;;2.00;1.17;;;14.00;99.90;;;;;;5034194;28;20025;-66
2023/08/16 03:10:53;;;;;;;0.43;0.40;;;14.10;99.90;;;;;;5033875;28;20025;-66
2023/08/16 03:13:18;;;;;;;0.77;0.67;;;14.20;99.90;;;;;;5033905;28;20029;-65
2023/08/16 03:15:44;;;;;;;0.20;0.20;;;14.30;99.90;;;;;;5035474;28;20562;-66
2023/08/16 03:18:10;;;;;;;0.07;0.07;;;14.30;99.90;;;;;;5029530;28;20080;-66
2023/08/16 03:20:35;;;;;;;0.20;0.20;;;14.30;99.90;;;;;;5032909;28;20028;-65
2023/08/16 03:23:01;;;;;;;0.20;0.20;;;14.30;99.90;;;;;;5031617;28;20025;-67
2023/08/16 03:25:27;;;;;;;0.47;0.20;;;14.30;99.90;;;;;;5020301;28;20026;-65
2023/08/16 03:27:53;;;;;;;0.20;0.20;;;14.20;99.90;;;;;;5032697;28;20467;-66
2023/08/16 03:30:18;;;;;;;0.17;0.17;;;14.20;99.90;;;;;;5032574;28;20037;-75
2023/08/16 03:32:44;;;;;;;0.20;0.20;;;14.30;99.90;;;;;;5035532;28;20086;-66
2023/08/16 03:35:11;;;;;;;0.30;0.20;;;14.30;99.90;;;;;;5037805;28;20310;-66
2023/08/16 03:37:36;;;;;;;0.57;0.47;;;14.30;99.90;;;;;;5029228;28;20316;-65
2023/08/16 03:40:02;;;;;;;0.00;0.00;;;14.20;99.90;;;;;;5034109;28;20030;-66
2023/08/16 03:42:28;;;;;;;0.10;0.10;;;14.10;99.90;;;;;;5034704;28;20041;-65
2023/08/16 03:44:54;;;;;;;0.93;0.30;;;14.10;99.90;;;;;;5027731;28;20298;-65
2023/08/16 03:47:19;;;;;;;0.17;0.17;;;14.00;99.90;;;;;;5024544;28;20333;-66
2023/08/16 03:49:45;;;;;;;0.00;0.00;;;13.90;99.90;;;;;;5033453;28;20033;-65
2023/08/16 03:52:11;;;;;;;0.03;0.03;;;13.90;99.90;;;;;;5020250;28;20068;-65
2023/08/16 03:54:36;;;;;;;0.30;0.30;;;13.70;99.90;;;;;;5018207;28;20427;-65
2023/08/16 03:57:03;;;;;;;1.03;0.73;;;13.60;99.90;;;;;;5027815;28;20021;-66
2023/08/16 03:59:28;;;;;;;0.22;0.22;;;13.50;99.90;;;;;;5033199;28;20057;-65
2023/08/16 04:01:54;;;;;;;0.30;0.30;;;13.50;99.90;;;;;;5017722;28;20053;-65
2023/08/16 04:04:20;;;;;;;0.40;0.40;;;13.40;99.90;;;;;;5034514;28;20049;-65
2023/08/16 04:06:45;;;;;;;0.00;0.00;;;13.30;99.90;;;;;;5026849;28;20021;-66
2023/08/16 04:09:11;;;;;;;0.10;0.10;;;13.30;99.90;;;;;;5033864;28;20030;-66
2023/08/16 04:11:37;;;;;;;0.00;0.00;;;13.20;99.90;;;;;;5033610;28;20099;-65
2023/08/16 04:14:03;;;;;;;0.10;0.10;;;13.20;99.90;;;;;;5033473;28;20061;-72
2023/08/16 04:16:28;;;;;;;0.00;0.00;;;13.20;99.90;;;;;;5034432;28;20025;-65
2023/08/16 04:18:54;;;;;;;0.10;0.10;;;13.30;99.90;;;;;;5023356;28;20045;-65
2023/08/16 04:21:20;;;;;;;0.03;0.03;;;13.30;99.90;;;;;;5034098;28;20025;-65
2023/08/16 04:23:46;;;;;;;0.00;0.00;;;13.30;99.90;;;;;;5033572;28;20017;-65
2023/08/16 04:26:12;;;;;;;0.77;0.20;;;13.30;99.90;;;;;;5015698;28;20118;-65
2023/08/16 04:28:38;;;;;;;0.93;0.75;;;13.20;99.90;;;;;;5027963;28;20033;-65
2023/08/16 04:31:07;;;;;;;0.00;0.00;;;13.30;99.90;;;;;;5039123;28;20055;-65
2023/08/16 04:33:32;;;;;;;0.45;0.45;;;13.40;99.90;;;;;;5033529;28;20436;-65
2023/08/16 04:35:58;;;;;;;0.40;0.40;;;13.40;99.90;;;;;;5028150;28;20168;-65
2023/08/16 04:38:24;;;;;;;0.20;0.20;;;13.40;99.90;;;;;;5031880;28;20029;-66
2023/08/16 04:40:50;;;;;;;0.07;0.07;;;13.50;99.90;;;;;;5041483;28;20069;-67
2023/08/16 04:43:16;;;;;;;0.30;0.20;;;13.50;99.90;;;;;;5026753;28;20018;-65
2023/08/16 04:45:42;;;;;;;0.60;0.50;;;13.60;99.90;;;;;;5029525;28;20437;-65
2023/08/16 04:48:08;;;;;;;0.20;0.20;;;13.60;99.90;;;;;;5026491;28;20053;-65
2023/08/16 04:50:34;;;;;;;0.00;0.00;;;13.60;99.90;;;;;;5037524;28;20112;-65
2023/08/16 04:53:01;;;;;;;0.10;0.10;;;13.70;99.90;;;;;;5034707;28;20428;-66
2023/08/16 04:55:26;;;;;;;0.38;0.38;;;13.70;99.90;;;;;;5039048;28;20036;-66
2023/08/16 04:57:52;;;;;;;0.37;0.37;;;13.80;99.90;;;;;;5034036;28;20038;-66
2023/08/16 05:00:19;;;;;;;0.57;0.57;;;13.80;99.90;;;;;;5037512;28;20028;-66
2023/08/16 05:02:45;;;;;;;0.20;0.20;;;13.80;99.90;;;;;;5032338;28;20025;-65
2023/08/16 05:05:11;;;;;;;0.47;0.20;;;13.90;99.90;;;;;;5036893;28;20132;-66
2023/08/16 05:07:37;;;;;;;0.10;0.10;;;13.90;99.90;;;;;;5029140;28;20040;-66
2023/08/16 05:10:03;;;;;;;0.10;0.10;;;13.80;99.90;;;;;;5031092;28;20040;-66
2023/08/16 05:12:29;;;;;;;0.00;0.00;;;13.80;99.90;;;;;;5037149;28;20037;-66
2023/08/16 05:14:54;;;;;;;0.00;0.00;;;13.80;99.90;;;;;;5030603;28;20043;-66
2023/08/16 05:17:20;;;;;;;0.00;0.00;;;13.80;99.90;;;;;;5033010;28;20105;-66
2023/08/16 05:19:46;;;;;;;0.13;0.13;;;13.70;99.90;;;;;;5029052;28;20029;-66
2023/08/16 05:22:11;;;;;;;0.00;0.00;;;13.60;99.90;;;;;;5041558;28;20458;-66
2023/08/16 05:24:37;;;;;;;0.10;0.10;;;13.60;99.90;;;;;;5029051;28;20458;-65
2023/08/16 05:27:03;;;;;;;0.20;0.20;;;13.50;99.90;;;;;;5033276;28;20030;-66
2023/08/16 05:29:29;;;;;;;0.00;0.00;;;13.50;99.90;;;;;;5035476;28;20262;-66
2023/08/16 05:31:56;;;;;;;0.00;0.00;;;13.50;99.90;;;;;;5035927;28;20104;-78
2023/08/16 05:34:22;;;;;;;0.00;0.00;;;13.50;99.90;;;;;;5029702;28;20294;-65
2023/08/16 05:36:50;;;;;;;0.00;0.00;;;13.50;99.90;;;;;;5027148;28;20021;-66
2023/08/16 05:39:16;;;;;;;0.35;0.28;;;13.50;99.90;;;;;;5031320;28;20267;-65
2023/08/16 05:41:42;;;;;;;0.10;0.10;;;13.50;99.90;;;;;;5031582;28;20068;-66
2023/08/16 05:44:07;;;;;;;0.00;0.00;;;13.60;99.90;;;;;;5029936;28;20045;-66
2023/08/16 05:46:33;;;;;;;0.13;0.07;;;13.60;99.90;;;;;;5045199;28;20061;-66
2023/08/16 05:49:02;;;;;;;0.07;0.07;;;13.70;99.90;;;;;;5028024;28;20037;-78
2023/08/16 05:51:27;;;;;;;0.00;0.00;;;13.80;99.90;;;;;;5029446;28;20025;-66
2023/08/16 05:53:53;;;;;;;0.07;0.07;;;13.80;99.90;;;;;;5024555;28;20036;-66
2023/08/16 05:56:19;;;;;;;0.30;0.30;;;14.00;99.90;;;;;;5026762;28;20030;-66
2023/08/16 05:58:45;;;;;;;0.70;0.70;;;14.10;99.90;;;;;;5028841;28;20030;-66
2023/08/16 06:01:10;;;;;;;0.20;0.20;;;14.20;99.90;;;;;;5027267;28;20029;-65
2023/08/16 06:03:36;;;;;;;0.03;0.03;;;14.40;99.90;;;;;;5029790;28;20165;-66
2023/08/16 06:06:02;;;;;;;0.13;0.13;;;14.50;99.90;;;;;;5026142;28;20025;-66
2023/08/16 06:08:28;;;;;;;3.00;0.67;;;14.60;99.90;;;;;;5023723;28;20029;-66
2023/08/16 06:10:53;;;;;;;0.87;0.57;;;14.80;99.90;;;;;;5033086;28;20132;-66
2023/08/16 06:13:19;;;;;;;2.37;0.93;;;14.90;99.90;;;;;;5028205;28;20029;-66
2023/08/16 06:15:45;;;;;;;0.20;0.20;;;15.10;99.90;;;;;;5033827;28;20302;-66
2023/08/16 06:18:11;;;;;;;0.53;0.53;;;15.20;99.90;;;;;;5025963;28;20041;-66
2023/08/16 06:20:36;;;;;;;0.63;0.63;;;15.40;99.90;;;;;;5022324;28;20030;-66
2023/08/16 06:23:02;;;;;;;0.77;0.77;;;15.50;99.90;;;;;;5029172;28;20120;-66
2023/08/16 06:25:29;;;;;;;0.82;0.82;;;15.80;99.90;;;;;;5032078;28;20079;-66
2023/08/16 06:27:54;;;;;;;1.20;0.85;;;15.90;99.90;;;;;;5039208;28;20422;-66
2023/08/16 06:30:20;;;;;;;0.20;0.20;;;16.00;99.90;;;;;;5032412;28;20040;-66
2023/08/16 06:32:46;;;;;;;0.50;0.50;;;16.10;99.90;;;;;;5024006;28;20036;-77
2023/08/16 06:35:11;;;;;;;1.13;1.00;;;16.20;99.90;;;;;;5027205;28;20412;-66
2023/08/16 06:37:41;;;;;;;0.83;0.40;;;16.40;99.90;;;;;;5035156;28;20045;-66
2023/08/16 06:40:08;;;;;;;0.50;0.50;;;16.50;99.90;;;;;;5051142;28;20061;-66
2023/08/16 06:42:35;;;;;;;1.35;0.82;;;16.60;99.90;;;;;;5035103;28;20055;-67
2023/08/16 06:45:01;;;;;;;;;;;16.70;99.90;;;;;;5022155;28;20109;-66
2023/08/16 06:47:27;;;;;;;0.55;0.55;;;16.80;99.90;;;;;;5025508;28;19952;-66
2023/08/16 06:49:53;;;;;;;0.80;0.80;;;16.90;99.90;;;;;;5036430;28;20033;-66
2023/08/16 06:52:19;;;;;;;;;;;17.00;99.90;;;;;;5030372;28;20456;-66
2023/08/16 06:54:45;;;;;;;1.35;0.90;;;17.10;99.90;;;;;;5034738;28;19916;-66
2023/08/16 06:57:11;;;;;;;0.10;0.10;;;17.20;99.90;;;;;;5028061;28;20030;-66
2023/08/16 06:59:38;;;;;;;;;;;17.40;99.90;;;;;;5048551;28;20301;-66
2023/08/16 07:02:04;;;;;;;;;;;17.40;99.90;;;;;;5036521;28;19916;-66
2023/08/16 07:04:29;;;;;;;0.25;0.25;;;17.50;99.90;;;;;;5035855;28;19913;-66
2023/08/16 07:06:55;;;;;;;1.13;1.00;;;17.60;99.90;;;;;;5034731;28;20436;-66
2023/08/16 07:09:22;;;;;;;0.10;0.10;;;17.60;99.90;;;;;;5035847;28;20017;-66
2023/08/16 07:11:48;;;;;;;0.10;0.10;;;17.70;99.90;;;;;;5032877;28;20112;-76
2023/08/16 07:14:13;;;;;;;0.20;0.20;;;17.80;99.90;;;;;;5022083;28;20421;-76
2023/08/16 07:16:39;;;;;;;0.13;0.13;;;17.90;99.90;;;;;;5035520;28;20044;-76
2023/08/16 07:19:08;;;;;;;1.23;0.85;;;18.10;99.90;;;;;;5035066;28;20033;-66
2023/08/16 07:21:35;;;;;;;0.10;0.10;;;18.10;99.90;;;;;;5032359;28;20543;-66
2023/08/16 07:24:01;;;;;;;;;;;18.20;99.90;;;;;;5025594;28;20034;-66
2023/08/16 07:26:26;;;;;;;0.05;0.05;;;18.20;99.90;;;;;;5034963;28;20211;-66
2023/08/16 07:28:52;;;;;;;0.10;0.10;;;18.30;99.90;;;;;;5034958;28;20033;-67
2023/08/16 07:31:18;;;;;;;0.10;0.10;;;18.40;99.90;;;;;;5035240;28;20039;-66
2023/08/16 07:33:43;;;;;;;0.57;0.43;;;18.50;99.90;;;;;;5023484;28;20080;-66
2023/08/16 07:36:09;;;;;;;0.27;0.20;;;18.60;99.90;;;;;;5035138;28;20641;-67
2023/08/16 07:38:35;;;;;;;0.85;0.43;;;18.80;99.90;;;;;;5034012;28;20526;-67
2023/08/16 07:41:01;;;;;;;0.10;0.10;;;18.90;99.90;;;;;;5027858;28;20463;-68
2023/08/16 07:43:29;;;;;;;0.55;0.55;;;19.00;99.90;;;;;;5027945;28;20033;-67
2023/08/16 07:45:54;;;;;;;0.10;0.10;;;19.10;99.90;;;;;;5018870;28;20033;-66
2023/08/16 07:48:20;;;;;;;0.30;0.30;;;19.10;99.90;;;;;;5025040;28;20083;-67
2023/08/16 07:50:46;;;;;;;0.40;0.40;;;19.20;99.90;;;;;;5024611;28;20025;-67
2023/08/16 07:53:13;;;;;;;0.40;0.40;;;19.20;99.90;;;;;;5027556;28;20021;-67
2023/08/16 07:55:38;;;;;;;0.00;0.00;;;19.30;99.90;;;;;;5024544;28;20037;-77
2023/08/16 07:58:04;;;;;;;0.10;0.10;;;19.40;99.90;;;;;;5030250;28;20029;-76
2023/08/16 08:00:30;;;;;;;0.33;0.33;;;19.50;99.90;;;;;;5020726;28;20053;-67
2023/08/16 08:02:56;;;;;;;0.38;0.20;;;19.50;99.90;;;;;;5031767;28;20026;-68
2023/08/16 08:05:22;;;;;;;0.10;0.10;;;19.50;99.90;;;;;;5030028;28;20029;-67
2023/08/16 08:07:48;;;;;;;0.40;0.40;;;19.50;99.90;;;;;;5027611;28;20021;-67
2023/08/16 08:10:15;;;;;;;0.08;0.08;;;19.50;99.90;;;;;;5030855;28;20033;-67
2023/08/16 08:12:45;;;;;;;0.00;0.00;;;19.70;99.90;;;;;;5018265;28;20026;-67
2023/08/16 08:15:11;;;;;;;0.20;0.20;;;19.70;99.90;;;;;;5032926;28;20676;-67
2023/08/16 08:17:36;;;;;;;0.20;0.20;;;19.80;99.90;;;;;;5025906;28;20123;-67
2023/08/16 08:20:04;;;;;;;0.10;0.10;;;19.80;99.90;;;;;;5029039;28;20163;-67
2023/08/16 08:22:30;;;;;;;0.35;0.20;;;20.00;99.90;;;;;;5025309;28;20060;-67
2023/08/16 08:24:56;;;;;;;0.20;0.20;;;20.00;99.90;;;;;;5023792;28;20321;-67
2023/08/16 08:27:21;;;;;;;0.13;0.10;;;20.20;99.90;;;;;;5032690;28;20361;-67
2023/08/16 08:29:47;;;;;;;0.67;0.67;;;20.20;99.90;;;;;;5022324;28;20036;-67
2023/08/16 08:32:13;;;;;;;0.10;0.10;;;20.30;99.90;;;;;;5029570;28;20030;-67
2023/08/16 08:34:39;;;;;;;0.10;0.10;;;20.30;99.90;;;;;;5028971;28;20021;-67
2023/08/16 08:37:05;;;;;;;0.00;0.00;;;20.30;99.90;;;;;;5017904;28;20037;-67
2023/08/16 08:39:32;;;;;;;0.10;0.10;;;20.40;99.90;;;;;;5023729;28;20057;-68
2023/08/16 08:41:58;;;;;;;0.20;0.20;;;20.50;99.90;;;;;;5027247;28;20335;-68
2023/08/16 08:44:25;;;;;;;0.40;0.40;;;20.70;99.90;;;;;;5040433;28;20038;-67
2023/08/16 08:46:51;;;;;;;0.43;0.35;;;20.80;99.90;;;;;;5020767;28;20036;-67
2023/08/16 08:49:19;;;;;;;0.20;0.20;;;20.90;99.90;;;;;;5024438;28;20030;-79
2023/08/16 08:51:46;;;;;;;0.85;0.43;;;20.90;99.90;;;;;;5030508;28;20055;-68
2023/08/16 08:54:11;;;;;;;0.30;0.30;;;20.80;99.90;;;;;;5017477;28;20072;-68
2023/08/16 08:56:38;;;;;;;0.00;0.00;;;20.90;99.90;;;;;;5020284;28;20359;-67
2023/08/16 08:59:06;;;;;;;0.73;0.57;;;20.90;99.90;;;;;;5023659;28;20056;-68
2023/08/16 09:01:33;;;;;;;0.13;0.13;;;20.90;99.90;;;;;;5034103;28;20302;-68
2023/08/16 09:04:02;;;;;;;0.17;0.17;;;20.90;99.90;;;;;;5029287;28;20049;-68
2023/08/16 09:06:28;;;;;;;4.28;0.90;;;21.00;99.90;;;;;;5032288;28;20025;-67
2023/08/16 09:08:56;;;;;;;0.45;0.45;;;21.00;99.90;;;;;;5036550;28;20025;-79
2023/08/16 09:11:24;;;;;;;2.17;0.85;;;21.00;99.90;;;;;;5031961;28;20076;-68
2023/08/16 09:13:51;;;;;;;0.10;0.10;;;20.90;99.90;;;;;;5035595;28;20037;-69
2023/08/16 09:16:17;;;;;;;0.20;0.20;;;20.90;99.90;;;;;;5016357;28;20443;-78
2023/08/16 09:18:47;;;;;;;0.17;0.17;;;21.00;99.90;;;;;;5040745;28;20029;-75
2023/08/16 09:21:18;;;;;;;0.00;0.00;;;21.10;99.90;;;;;;5020531;28;20432;-67
2023/08/16 09:23:45;;;;;;;1.08;0.40;;;21.10;99.90;;;;;;5034155;28;20112;-68
2023/08/16 09:26:15;;;;;;;1.90;1.30;;;21.10;99.90;;;;;;5035061;28;20044;-69
2023/08/16 09:28:41;;;;;;;0.45;0.45;;;21.10;99.90;;;;;;5041488;28;20413;-67
2023/08/16 09:31:07;;;;;;;0.65;0.65;;;21.20;99.90;;;;;;5024047;28;20040;-78
2023/08/16 09:33:37;;;;;;;1.67;0.43;;;21.20;99.90;;;;;;5025360;28;20112;-78
2023/08/16 09:36:04;;;;;;;0.25;0.25;;;21.30;99.90;;;;;;5028991;28;20036;-75
2023/08/16 09:38:31;;;;;;;1.27;0.60;;;21.30;99.90;;;;;;5029122;28;20033;-69
2023/08/16 09:40:58;;;;;;;0.20;0.20;;;21.30;99.90;;;;;;5028396;28;20049;-80
2023/08/16 09:43:24;;;;;;;0.20;0.20;;;21.30;99.90;;;;;;5035304;28;20415;-67
2023/08/16 09:45:54;;;;;;;0.60;0.35;;;21.30;99.90;;;;;;5029704;28;20047;-69
2023/08/16 09:48:21;;;;;;;0.13;0.13;;;21.40;99.90;;;;;;5057601;28;20044;-67
2023/08/16 09:50:47;;;;;;;0.03;0.03;;;21.30;99.90;;;;;;5021972;28;20112;-67
2023/08/16 09:53:13;;;;;;;0.00;0.00;;;21.30;99.90;;;;;;5032155;28;20038;-68
2023/08/16 09:55:42;;;;;;;0.13;0.13;;;21.30;99.90;;;;;;5036645;28;20409;-68
2023/08/16 09:58:08;;;;;;;0.22;0.22;;;21.40;99.90;;;;;;5033470;28;20068;-68
2023/08/16 10:00:34;;;;;;;0.10;0.10;;;21.50;99.90;;;;;;5023858;28;20049;-68
2023/08/16 10:03:01;;;;;;;0.65;0.45;;;21.60;99.90;;;;;;5032365;28;20040;-79
2023/08/16 10:05:27;;;;;;;0.05;0.05;;;21.70;99.90;;;;;;5037288;28;20056;-68
2023/08/16 10:07:54;;;;;;;1.23;0.45;;;21.70;99.90;;;;;;5027974;28;20065;-68
2023/08/16 10:10:20;;;;;;;0.00;0.00;;;21.70;99.90;;;;;;5030432;28;20037;-77
2023/08/16 10:12:47;;;;;;;0.85;0.75;;;21.80;99.90;;;;;;5026394;28;20021;-78
2023/08/16 10:15:14;;;;;;;0.00;0.00;;;21.80;99.90;;;;;;5025978;28;20424;-68
2023/08/16 10:17:41;;;;;;;0.43;0.43;;;21.90;99.90;;;;;;5016735;28;20034;-67
2023/08/16 10:20:32;;;;;;;0.00;0.00;;;22.00;99.90;;;;;;5016205;28;20448;-68
2023/08/16 10:23:00;;;;;;;0.10;0.10;;;21.90;99.90;;;;;;5016636;28;20030;-68
2023/08/16 10:25:34;;;;;;;0.25;0.25;;;21.90;99.90;;;;;;5030875;28;20056;-68
2023/08/16 10:28:02;;;;;;;0.40;0.40;;;21.90;99.90;;;;;;5048891;28;20037;-68
2023/08/16 10:30:30;;;;;;;0.10;0.10;;;22.00;99.90;;;;;;5032098;28;20030;-68
2023/08/16 10:33:14;;;;;;;0.30;0.30;;;22.00;99.90;;;;;;5023946;28;20057;-77
2023/08/16 10:35:41;;;;;;;0.10;0.10;;;22.00;99.90;;;;;;5033680;28;20036;-75
2023/08/16 10:38:06;;;;;;;;;;;22.00;99.90;;;;;;5038077;28;20034;-68
2023/08/16 10:40:32;;;;;;;0.52;0.52;;;22.00;99.90;;;;;;5035503;28;19916;-68
2023/08/16 10:43:03;;;;;;;0.00;0.00;;;22.00;99.90;;;;;;5034631;28;20424;-67
2023/08/16 10:45:34;;;;;;;0.10;0.10;;;22.00;99.90;;;;;;5029936;28;20428;-76
2023/08/16 10:48:18;;;;;;;0.00;0.00;;;22.00;99.90;;;;;;5031180;28;20085;-68
2023/08/16 10:50:55;;;;;;;1.08;0.75;;;22.10;99.90;;;;;;5031466;28;20018;-68
2023/08/16 10:53:25;;;;;;;0.10;0.10;;;22.10;99.90;;;;;;5031616;28;20120;-75
2023/08/16 10:55:57;;;;;;;0.00;0.00;;;22.20;99.90;;;;;;5042295;28;20332;-72
2023/08/16 10:58:24;;;;;;;0.00;0.00;;;22.30;99.90;;;;;;5029407;28;20029;-78
2023/08/16 11:00:58;;;;;;;0.25;0.20;;;22.30;99.90;;;;;;5028317;28;20065;-71
2023/08/16 11:03:31;;;;;;;0.00;0.00;;;22.40;99.90;;;;;;5031486;28;20029;-78
2023/08/16 11:06:07;;;;;;;0.17;0.17;;;22.60;99.90;;;;;;5035110;28;20025;-78
2023/08/16 11:08:32;;;;;;;0.00;0.00;;;22.70;99.90;;;;;;5019153;28;20036;-78
2023/08/16 11:11:01;;;;;;;0.20;0.20;;;22.70;99.90;;;;;;5033615;28;20033;-68
2023/08/16 11:13:28;;;;;;;0.30;0.30;;;22.80;99.90;;;;;;5027697;28;20041;-68
2023/08/16 11:15:55;;;;;;;0.00;0.00;;;22.90;99.90;;;;;;5032278;28;20037;-68
2023/08/16 11:18:32;;;;;;;0.10;0.10;;;22.90;99.90;;;;;;5024241;28;20036;-68
2023/08/16 11:21:01;;;;;;;0.00;0.00;;;23.00;99.90;;;;;;5037623;28;20029;-68
2023/08/16 11:23:31;;;;;;;0.00;0.00;;;23.10;99.90;;;;;;5017362;28;20022;-68
2023/08/16 11:26:02;;;;;;;0.03;0.03;;;23.20;99.90;;;;;;5030904;28;20354;-68
2023/08/16 11:28:28;;;;;;;0.20;0.20;;;23.20;99.90;;;;;;5033337;28;20036;-77
2023/08/16 11:31:01;;;;;;;;;;;23.30;99.90;;;;;;5030155;28;20077;-68
2023/08/16 11:33:39;;;;;;;0.00;0.00;;;23.40;99.90;;;;;;5029850;28;19909;-68
2023/08/16 11:36:08;;;;;;;0.00;0.00;;;23.40;99.90;;;;;;5029427;28;20088;-68
2023/08/16 11:38:34;;;;;;;0.20;0.20;;;23.40;99.90;;;;;;5023162;28;20106;-68
2023/08/16 11:41:01;;;;;;;0.03;0.03;;;23.40;99.90;;;;;;5038293;28;20045;-68
2023/08/16 11:43:35;;;;;;;0.70;0.40;;;23.30;99.90;;;;;;5037255;28;20017;-78
2023/08/16 11:46:02;;;;;;;0.28;0.25;;;23.20;99.90;;;;;;5027167;28;20084;-68
2023/08/16 11:48:29;;;;;;;0.30;0.30;;;23.10;99.90;;;;;;5043681;28;20024;-68
2023/08/16 11:50:59;;;;;;;0.70;0.47;;;23.00;99.90;;;;;;5019878;28;20045;-77
2023/08/16 11:53:32;;;;;;;0.00;0.00;;;23.10;99.90;;;;;;5033377;28;20052;-69
2023/08/16 11:55:59;;;;;;;0.05;0.05;;;23.10;99.90;;;;;;5026974;28;20417;-68
2023/08/16 11:58:25;;;;;;;0.17;0.17;;;23.10;99.90;;;;;;5029003;28;20049;-69
2023/08/16 12:00:51;;;;;;;0.00;0.00;;;23.20;99.90;;;;;;5029363;28;20100;-69
2023/08/16 12:03:18;;;;;;;0.00;0.00;;;23.20;99.90;;;;;;5045371;28;20133;-78
2023/08/16 12:05:49;;;;;;;0.00;0.00;;;23.20;99.90;;;;;;5026713;28;20317;-68
2023/08/16 12:08:20;;;;;;;0.25;0.25;;;23.20;99.90;;;;;;5023186;28;20037;-68
2023/08/16 12:10:56;;;;;;;0.10;0.10;;;23.30;99.90;;;;;;5018983;28;20030;-69
2023/08/16 12:13:23;;;;;;;0.20;0.20;;;23.30;99.90;;;;;;5028976;28;20038;-68
2023/08/16 12:15:49;;;;;;;0.55;0.55;;;23.30;99.90;;;;;;5028202;28;20103;-68
2023/08/16 12:18:16;;;;;;;;;;;23.40;99.90;;;;;;5018044;28;20029;-68
2023/08/16 12:20:43;;;;;;;0.00;0.00;;;23.30;99.90;;;;;;5037307;28;19913;-68
2023/08/16 12:23:09;;;;;;;0.00;0.00;;;23.40;99.90;;;;;;5031090;28;20021;-68
2023/08/16 12:25:35;;;;;;;0.00;0.00;;;23.40;99.90;;;;;;5034747;28;20030;-69
2023/08/16 12:28:01;;;;;;;0.20;0.20;;;23.40;99.90;;;;;;5018391;28;20034;-68
2023/08/16 12:30:30;;;;;;;0.00;0.00;;;23.40;99.90;;;;;;5025925;28;20030;-68
2023/08/16 12:32:55;;;;;;;0.10;0.10;;;23.50;99.90;;;;;;5025068;28;20045;-68
2023/08/16 12:35:21;;;;;;;0.07;0.07;;;23.60;99.90;;;;;;5029725;28;20029;-68
2023/08/16 12:37:47;;;;;;;0.00;0.00;;;23.60;99.90;;;;;;5027982;28;20030;-68
2023/08/16 12:40:13;;;;;;;0.00;0.00;;;23.60;99.90;;;;;;5022444;28;20386;-68
2023/08/16 12:42:40;;;;;;;0.15;0.15;;;23.60;99.90;;;;;;5029811;28;20112;-68
2023/08/16 12:45:06;;;;;;;0.00;0.00;;;23.60;99.90;;;;;;5024844;28;20022;-68
2023/08/16 12:47:32;;;;;;;0.00;0.00;;;23.80;99.90;;;;;;5016842;28;20030;-68